Time;durP1;ratioP1;P1;durP2;ratioP2;P2;SDS_P1;SDS_P2;PMS_P1;PMS_P2;Temp;Humidity;BMP_temperature;BMP_pressure;BME280_temperature;BME280_humidity;BME280_pressure;Samples;Min_cycle;Max_cycle;Signal;HPM_P1;HPM_P2
2023/07/04 00:01:18;;;;;;;4.22;2.30;;;20.00;78.10;;;;;;4998956;28;20097;-67
2023/07/04 00:03:46;;;;;;;3.65;2.38;;;20.00;78.20;;;;;;4998600;28;20027;-66
2023/07/04 00:06:17;;;;;;;7.10;2.80;;;20.00;78.20;;;;;;4998910;28;20033;-66
2023/07/04 00:08:44;;;;;;;5.50;3.35;;;20.00;78.20;;;;;;4998525;28;20073;-68
2023/07/04 00:11:12;;;;;;;5.25;3.10;;;20.00;78.20;;;;;;4999090;28;20084;-68
2023/07/04 00:13:39;;;;;;;5.75;3.20;;;20.00;78.30;;;;;;4998759;28;20085;-66
2023/07/04 00:16:08;;;;;;;6.13;3.55;;;20.00;78.30;;;;;;4997463;28;20030;-66
2023/07/04 00:18:36;;;;;;;5.72;3.38;;;20.00;78.40;;;;;;4997501;28;20022;-68
2023/07/04 00:21:07;;;;;;;6.45;3.97;;;20.00;78.40;;;;;;4998318;28;20105;-66
2023/07/04 00:23:36;;;;;;;8.63;4.53;;;19.90;78.50;;;;;;4998239;28;20030;-69
2023/07/04 00:26:04;;;;;;;7.70;3.58;;;20.00;78.50;;;;;;4998546;28;20037;-66
2023/07/04 00:28:30;;;;;;;6.65;4.53;;;19.90;78.60;;;;;;4998233;28;20042;-66
2023/07/04 00:30:56;;;;;;;9.93;5.28;;;19.90;78.70;;;;;;4998444;28;20026;-69
2023/07/04 00:33:25;;;;;;;8.60;5.32;;;19.90;78.80;;;;;;4998542;28;20037;-66
2023/07/04 00:36:05;;;;;;;13.27;5.93;;;19.90;79.10;;;;;;4997947;28;20128;-69
2023/07/04 00:38:33;;;;;;;13.05;6.70;;;19.80;79.20;;;;;;4998578;28;20037;-66
2023/07/04 00:41:15;;;;;;;9.90;6.20;;;19.80;79.80;;;;;;4997984;28;20101;-67
2023/07/04 00:43:45;;;;;;;12.52;6.55;;;19.70;79.60;;;;;;4998173;28;20081;-66
2023/07/04 00:46:14;;;;;;;11.95;6.45;;;19.60;79.40;;;;;;4997902;28;20042;-67
2023/07/04 00:48:48;;;;;;;12.07;7.18;;;19.60;80.10;;;;;;4998145;28;20129;-69
2023/07/04 00:51:21;;;;;;;11.13;7.22;;;19.50;80.30;;;;;;4998095;28;20034;-66
2023/07/04 00:53:53;;;;;;;10.70;7.53;;;19.50;80.40;;;;;;4998046;28;20122;-68
2023/07/04 00:56:25;;;;;;;11.00;7.50;;;19.50;81.10;;;;;;4997767;28;20037;-66
2023/07/04 00:58:54;;;;;;;11.10;6.78;;;19.40;82.60;;;;;;4998242;28;20392;-69
2023/07/04 01:01:20;;;;;;;10.00;5.50;;;19.30;82.70;;;;;;4997601;28;20439;-69
2023/07/04 01:03:48;;;;;;;8.50;4.32;;;19.30;83.00;;;;;;4997718;28;20026;-68
2023/07/04 01:06:31;;;;;;;9.40;4.63;;;19.20;83.10;;;;;;4997777;28;20022;-67
2023/07/04 01:09:01;;;;;;;6.43;3.97;;;19.10;83.30;;;;;;4998096;28;20026;-67
2023/07/04 01:11:33;;;;;;;9.73;4.13;;;19.10;82.80;;;;;;4997358;28;20036;-66
2023/07/04 01:13:59;;;;;;;7.75;3.38;;;19.00;82.60;;;;;;4997666;28;20444;-67
2023/07/04 01:16:25;;;;;;;6.63;3.28;;;18.90;82.60;;;;;;4997374;28;20065;-66
2023/07/04 01:18:55;;;;;;;5.25;3.08;;;18.90;82.50;;;;;;4997548;28;20078;-68
2023/07/04 01:21:25;;;;;;;5.20;3.10;;;18.90;82.10;;;;;;4997509;28;20018;-68
2023/07/04 01:23:57;;;;;;;4.68;2.75;;;18.80;82.00;;;;;;4997558;28;20077;-66
2023/07/04 01:26:39;;;;;;;3.80;2.70;;;18.90;81.90;;;;;;4997714;28;20054;-68
2023/07/04 01:29:16;;;;;;;5.22;2.70;;;18.90;81.80;;;;;;4997362;28;20048;-69
2023/07/04 01:31:43;;;;;;;5.20;2.90;;;18.90;81.70;;;;;;4997302;28;20044;-70
2023/07/04 01:34:11;;;;;;;7.25;3.85;;;18.90;81.60;;;;;;4996920;28;20073;-66
2023/07/04 01:36:41;;;;;;;8.07;3.92;;;18.90;81.60;;;;;;4996985;28;20022;-67
2023/07/04 01:39:14;;;;;;;7.45;3.83;;;18.90;82.30;;;;;;4997185;28;20049;-69
2023/07/04 01:41:44;;;;;;;7.97;3.45;;;18.90;81.80;;;;;;4996004;28;20081;-68
2023/07/04 01:44:10;;;;;;;4.57;3.00;;;18.90;81.70;;;;;;4995790;28;20392;-66
2023/07/04 01:46:36;;;;;;;3.58;2.58;;;18.90;81.40;;;;;;4997015;28;20080;-67
2023/07/04 01:49:03;;;;;;;5.88;2.72;;;18.90;81.40;;;;;;4997019;28;20101;-69
2023/07/04 01:51:34;;;;;;;9.13;3.47;;;18.90;81.30;;;;;;4997139;28;20026;-67
2023/07/04 01:54:01;;;;;;;6.28;3.33;;;19.00;81.20;;;;;;4996971;28;20022;-67
2023/07/04 01:56:29;;;;;;;4.93;3.45;;;18.90;81.30;;;;;;4996857;28;20031;-66
2023/07/04 01:58:55;;;;;;;7.25;3.75;;;18.90;81.40;;;;;;4997054;28;20026;-66
2023/07/04 02:01:22;;;;;;;5.82;3.50;;;18.90;81.40;;;;;;4995535;28;20030;-66
2023/07/04 02:03:48;;;;;;;4.75;2.97;;;18.90;81.30;;;;;;4996423;28;20046;-69
2023/07/04 02:06:15;;;;;;;4.40;3.00;;;18.90;81.30;;;;;;4996411;28;20050;-66
2023/07/04 02:08:41;;;;;;;4.95;3.08;;;19.00;81.40;;;;;;4996390;28;20028;-69
2023/07/04 02:11:07;;;;;;;6.75;3.50;;;19.10;81.20;;;;;;4996894;28;20027;-68
2023/07/04 02:13:33;;;;;;;5.63;3.22;;;19.10;81.00;;;;;;4996400;28;20030;-68
2023/07/04 02:15:59;;;;;;;6.22;3.53;;;19.00;80.90;;;;;;4996342;28;20325;-65
2023/07/04 02:18:26;;;;;;;3.67;2.72;;;18.90;80.80;;;;;;4996276;28;20034;-68
2023/07/04 02:20:52;;;;;;;3.92;2.60;;;18.90;80.90;;;;;;4996573;28;20341;-68
2023/07/04 02:23:18;;;;;;;4.45;2.80;;;18.80;81.00;;;;;;4996319;28;20109;-65
2023/07/04 02:25:44;;;;;;;5.55;3.28;;;18.80;81.10;;;;;;4996159;28;20130;-66
2023/07/04 02:28:11;;;;;;;3.80;2.80;;;18.80;81.00;;;;;;4996367;28;20022;-66
2023/07/04 02:30:37;;;;;;;4.30;2.70;;;18.80;81.10;;;;;;4996285;28;20038;-68
2023/07/04 02:33:04;;;;;;;6.10;2.50;;;18.70;81.00;;;;;;4995886;28;20029;-66
2023/07/04 02:35:30;;;;;;;3.40;2.47;;;18.70;81.00;;;;;;4995812;28;20057;-65
2023/07/04 02:37:57;;;;;;;4.68;2.50;;;18.70;81.00;;;;;;4996228;28;20093;-68
2023/07/04 02:40:24;;;;;;;5.82;2.90;;;18.70;81.00;;;;;;4994428;28;20031;-69
2023/07/04 02:42:49;;;;;;;5.50;3.13;;;18.70;80.90;;;;;;4995938;28;20028;-69
2023/07/04 02:45:16;;;;;;;5.82;3.10;;;18.60;81.00;;;;;;4995840;28;20109;-66
2023/07/04 02:47:42;;;;;;;4.55;2.72;;;18.70;81.00;;;;;;4996101;28;20053;-65
2023/07/04 02:50:08;;;;;;;5.82;2.50;;;18.60;81.00;;;;;;4995848;28;20077;-66
2023/07/04 02:52:34;;;;;;;4.20;2.72;;;18.60;80.90;;;;;;4996258;28;20034;-69
2023/07/04 02:55:00;;;;;;;5.03;3.30;;;18.60;80.90;;;;;;4995765;28;20027;-68
2023/07/04 02:57:26;;;;;;;5.15;3.13;;;18.60;80.90;;;;;;4996048;28;20033;-66
2023/07/04 02:59:53;;;;;;;5.07;3.10;;;18.50;81.00;;;;;;4995771;28;20031;-69
2023/07/04 03:02:19;;;;;;;6.22;3.70;;;18.60;81.00;;;;;;4995642;28;20444;-69
2023/07/04 03:04:47;;;;;;;6.53;3.47;;;18.60;81.00;;;;;;4995915;28;20054;-68
2023/07/04 03:07:13;;;;;;;5.47;3.22;;;18.50;80.90;;;;;;4995975;28;20123;-68
2023/07/04 03:09:40;;;;;;;4.90;3.17;;;18.50;80.90;;;;;;4995672;28;20472;-66
2023/07/04 03:12:07;;;;;;;5.43;3.22;;;18.50;80.90;;;;;;4995838;28;20412;-69
2023/07/04 03:14:32;;;;;;;4.80;3.13;;;18.50;80.90;;;;;;4995545;28;20058;-69
2023/07/04 03:16:58;;;;;;;4.57;2.75;;;18.50;80.80;;;;;;4995630;28;20053;-67
2023/07/04 03:19:24;;;;;;;3.80;2.80;;;18.50;80.80;;;;;;4996124;28;20087;-69
2023/07/04 03:21:50;;;;;;;3.25;2.58;;;18.50;80.70;;;;;;4995856;28;20044;-69
2023/07/04 03:24:16;;;;;;;5.15;3.20;;;18.50;80.70;;;;;;4995537;28;20026;-66
2023/07/04 03:26:45;;;;;;;3.90;2.97;;;18.50;80.70;;;;;;4996077;28;20026;-66
2023/07/04 03:29:10;;;;;;;3.63;2.70;;;18.50;80.60;;;;;;4996246;28;20031;-69
2023/07/04 03:31:36;;;;;;;6.10;3.50;;;18.50;80.60;;;;;;4995679;28;20023;-69
2023/07/04 03:34:02;;;;;;;4.82;3.00;;;18.50;80.60;;;;;;4995368;28;20042;-66
2023/07/04 03:36:28;;;;;;;7.20;3.20;;;18.50;80.60;;;;;;4995980;28;20101;-69
2023/07/04 03:38:54;;;;;;;4.10;2.90;;;18.50;80.50;;;;;;4995682;28;20132;-69
2023/07/04 03:41:20;;;;;;;8.02;3.28;;;18.50;80.70;;;;;;4995925;28;20101;-66
2023/07/04 03:43:46;;;;;;;3.97;2.95;;;18.50;80.60;;;;;;4995303;28;20360;-69
2023/07/04 03:46:12;;;;;;;6.13;3.08;;;18.50;80.60;;;;;;4995379;28;20037;-69
2023/07/04 03:48:38;;;;;;;5.68;3.35;;;18.40;80.60;;;;;;4995348;28;20026;-66
2023/07/04 03:51:04;;;;;;;6.80;3.65;;;18.40;80.70;;;;;;4995841;28;20037;-67
2023/07/04 03:53:30;;;;;;;17.80;3.92;;;18.50;80.70;;;;;;4998450;28;20105;-69
2023/07/04 03:55:56;;;;;;;5.35;3.30;;;18.40;80.80;;;;;;4999090;28;20396;-67
2023/07/04 03:58:23;;;;;;;5.03;3.20;;;18.50;80.80;;;;;;4998440;28;20026;-69
2023/07/04 04:00:50;;;;;;;6.85;3.17;;;18.50;80.80;;;;;;4998784;28;20026;-66
2023/07/04 04:03:16;;;;;;;4.20;2.78;;;18.50;80.70;;;;;;4998942;28;20038;-66
2023/07/04 04:05:43;;;;;;;5.30;3.00;;;18.50;80.70;;;;;;4997724;28;20034;-66
2023/07/04 04:08:09;;;;;;;6.60;3.28;;;18.60;80.60;;;;;;4998642;28;20038;-66
2023/07/04 04:10:35;;;;;;;6.40;3.17;;;18.60;80.60;;;;;;4998619;28;20048;-67
2023/07/04 04:13:02;;;;;;;6.85;3.30;;;18.60;80.50;;;;;;4998773;28;20252;-67
2023/07/04 04:15:28;;;;;;;7.60;3.13;;;18.70;80.40;;;;;;4998429;28;20344;-69
2023/07/04 04:17:57;;;;;;;5.43;3.03;;;18.80;80.40;;;;;;4998490;28;20077;-65
2023/07/04 04:20:23;;;;;;;5.28;3.13;;;18.80;80.30;;;;;;4998426;28;20018;-69
2023/07/04 04:22:49;;;;;;;5.50;2.80;;;18.90;80.30;;;;;;4998901;28;20034;-66
2023/07/04 04:25:17;;;;;;;4.47;2.80;;;18.90;80.20;;;;;;4998221;28;20026;-69
2023/07/04 04:27:45;;;;;;;7.25;3.00;;;19.00;80.10;;;;;;4998253;28;20118;-66
2023/07/04 04:30:12;;;;;;;7.07;2.90;;;19.20;80.10;;;;;;4998494;28;20034;-66
2023/07/04 04:32:39;;;;;;;4.15;2.78;;;19.30;80.00;;;;;;4998662;28;20313;-66
2023/07/04 04:35:08;;;;;;;6.82;3.40;;;19.40;79.70;;;;;;4997950;28;20042;-66
2023/07/04 04:37:34;;;;;;;6.85;3.05;;;19.60;79.50;;;;;;4997120;28;20475;-69
2023/07/04 04:40:01;;;;;;;5.80;2.85;;;19.80;79.30;;;;;;4998081;28;20023;-66
2023/07/04 04:42:32;;;;;;;6.45;3.60;;;20.00;79.10;;;;;;4998003;28;20354;-68
2023/07/04 04:44:57;;;;;;;8.55;5.13;;;20.20;79.00;;;;;;4998199;28;20076;-68
2023/07/04 04:47:24;;;;;;;7.80;5.38;;;20.40;78.80;;;;;;4998156;28;20035;-66
2023/07/04 04:49:52;;;;;;;7.65;4.50;;;20.60;78.40;;;;;;4997887;28;20038;-65
2023/07/04 04:52:23;;;;;;;7.70;3.75;;;20.90;78.30;;;;;;4997388;28;20023;-66
2023/07/04 04:54:49;;;;;;;5.70;3.38;;;21.20;78.40;;;;;;4997993;28;20093;-69
2023/07/04 04:57:16;;;;;;;3.50;3.10;;;21.90;78.30;;;;;;4997794;28;20022;-69
2023/07/04 04:59:42;;;;;;;6.53;2.63;;;23.20;77.00;;;;;;4997934;28;20034;-69
2023/07/04 05:02:12;;;;;;;3.47;2.67;;;24.60;74.70;;;;;;4997029;28;20038;-65
2023/07/04 05:04:38;;;;;;;2.60;2.35;;;26.10;71.60;;;;;;4997170;28;20128;-68
2023/07/04 05:07:04;;;;;;;3.97;2.45;;;27.40;68.60;;;;;;4998093;28;20031;-70
2023/07/04 05:09:31;;;;;;;4.68;2.90;;;28.60;65.40;;;;;;4997512;28;20368;-70
2023/07/04 05:11:57;;;;;;;4.00;2.33;;;29.70;62.80;;;;;;4997426;28;20105;-70
2023/07/04 05:14:23;;;;;;;4.95;2.30;;;30.70;60.10;;;;;;4997364;28;20503;-67
2023/07/04 05:16:49;;;;;;;4.13;2.30;;;31.60;57.60;;;;;;4997638;28;20026;-69
2023/07/04 05:19:15;;;;;;;3.67;2.10;;;32.40;55.70;;;;;;4997845;28;20436;-69
2023/07/04 05:21:41;;;;;;;4.93;2.10;;;33.30;53.70;;;;;;4997317;28;20105;-70
2023/07/04 05:24:07;;;;;;;4.57;2.30;;;34.10;52.10;;;;;;4997686;28;20019;-66
2023/07/04 05:26:33;;;;;;;3.70;2.38;;;34.90;50.40;;;;;;4997161;28;20022;-72
2023/07/04 05:28:59;;;;;;;5.25;2.45;;;35.60;48.70;;;;;;4997143;28;20018;-72
2023/07/04 05:31:27;;;;;;;5.55;2.20;;;36.30;47.20;;;;;;4997101;28;20333;-71
2023/07/04 05:33:55;;;;;;;2.92;2.10;;;36.90;46.00;;;;;;4996699;28;20038;-71
2023/07/04 05:36:29;;;;;;;4.30;2.42;;;37.50;44.70;;;;;;4996050;28;20113;-71
2023/07/04 05:38:59;;;;;;;4.38;2.25;;;38.20;43.40;;;;;;4997517;28;20117;-70
2023/07/04 05:41:27;;;;;;;4.45;2.00;;;38.80;42.30;;;;;;4997169;28;20084;-71
2023/07/04 05:43:57;;;;;;;2.25;1.73;;;39.40;41.50;;;;;;4996784;28;20044;-68
2023/07/04 05:46:24;;;;;;;2.58;1.90;;;39.90;40.30;;;;;;4996809;28;20030;-67
2023/07/04 05:48:51;;;;;;;2.10;1.90;;;40.40;39.80;;;;;;4996746;28;20097;-69
2023/07/04 05:51:18;;;;;;;2.95;1.83;;;40.90;38.70;;;;;;4996102;28;20030;-68
2023/07/04 05:53:50;;;;;;;2.97;2.00;;;41.50;37.90;;;;;;4996805;28;20025;-66
2023/07/04 05:56:27;;;;;;;3.25;2.10;;;41.50;36.60;;;;;;4997129;28;20037;-67
2023/07/04 05:58:58;;;;;;;3.85;2.10;;;41.00;36.20;;;;;;4996026;28;20037;-67
2023/07/04 06:01:32;;;;;;;3.30;2.03;;;40.90;37.00;;;;;;4996773;28;20062;-67
2023/07/04 06:03:59;;;;;;;4.15;1.80;;;41.50;36.60;;;;;;4996394;28;20030;-69
2023/07/04 06:06:30;;;;;;;4.18;2.00;;;42.30;35.90;;;;;;4996442;28;20355;-69
2023/07/04 06:08:57;;;;;;;3.38;2.05;;;42.50;35.30;;;;;;4997003;28;20029;-67
2023/07/04 06:11:26;;;;;;;2.15;1.95;;;42.40;35.00;;;;;;4996386;28;20081;-69
2023/07/04 06:13:56;;;;;;;2.67;1.92;;;42.70;34.90;;;;;;4996468;28;20116;-69
2023/07/04 06:16:23;;;;;;;2.83;1.98;;;43.40;34.50;;;;;;4995931;28;20034;-69
2023/07/04 06:18:49;;;;;;;3.70;2.00;;;44.20;33.60;;;;;;4996189;28;20041;-68
2023/07/04 06:21:18;;;;;;;3.05;2.45;;;44.90;32.50;;;;;;4996466;28;20049;-69
2023/07/04 06:23:44;;;;;;;5.97;3.28;;;45.40;31.80;;;;;;4996110;28;20031;-68
2023/07/04 06:26:12;;;;;;;7.43;3.78;;;45.90;31.20;;;;;;4996430;28;20107;-67
2023/07/04 06:28:39;;;;;;;7.60;4.05;;;46.40;30.30;;;;;;4996086;28;20448;-69
2023/07/04 06:31:11;;;;;;;7.38;4.25;;;46.90;29.70;;;;;;4996094;28;20058;-67
2023/07/04 06:33:37;;;;;;;7.72;4.82;;;47.30;29.00;;;;;;4995893;28;20463;-68
2023/07/04 06:36:07;;;;;;;7.35;4.63;;;47.60;28.20;;;;;;4996073;28;20041;-68
2023/07/04 06:38:33;;;;;;;7.13;4.70;;;47.90;27.30;;;;;;4996025;28;20390;-68
2023/07/04 06:41:02;;;;;;;7.53;5.10;;;48.00;26.80;;;;;;4996248;28;20134;-67
2023/07/04 06:43:31;;;;;;;7.85;4.47;;;48.10;26.10;;;;;;4996385;28;20018;-69
2023/07/04 06:45:57;;;;;;;8.77;4.53;;;47.90;25.80;;;;;;4996373;28;20033;-69
2023/07/04 06:48:25;;;;;;;8.65;4.90;;;47.20;26.20;;;;;;4995892;28;20022;-69
2023/07/04 06:51:00;;;;;;;8.85;4.50;;;45.80;26.50;;;;;;4994884;28;20356;-69
2023/07/04 06:53:27;;;;;;;10.45;5.45;;;44.10;27.90;;;;;;4995782;28;20443;-67
2023/07/04 06:56:02;;;;;;;8.63;4.97;;;42.40;29.60;;;;;;4995418;28;20026;-68
2023/07/04 06:58:28;;;;;;;11.43;5.07;;;40.90;31.60;;;;;;4995226;28;20022;-67
2023/07/04 07:00:55;;;;;;;8.60;4.40;;;39.40;33.30;;;;;;4995863;28;20018;-69
2023/07/04 07:03:22;;;;;;;8.98;5.45;;;38.40;34.70;;;;;;4996080;28;20023;-68
2023/07/04 07:05:48;;;;;;;8.15;4.70;;;37.40;36.10;;;;;;4996007;28;20035;-70
2023/07/04 07:08:16;;;;;;;5.65;3.60;;;36.70;37.40;;;;;;4995922;28;20033;-68
2023/07/04 07:10:58;;;;;;;5.68;3.28;;;36.00;38.10;;;;;;4995569;28;20089;-68
2023/07/04 07:13:25;;;;;;;4.35;2.72;;;35.30;38.00;;;;;;4995721;28;20077;-68
2023/07/04 07:15:53;;;;;;;3.67;2.60;;;34.70;40.30;;;;;;4995587;28;20029;-68
2023/07/04 07:18:19;;;;;;;3.92;2.20;;;34.30;41.10;;;;;;4994665;28;20026;-68
2023/07/04 07:20:45;;;;;;;3.95;2.50;;;34.00;41.70;;;;;;4995497;28;20511;-68
2023/07/04 07:23:12;;;;;;;2.85;2.05;;;33.80;42.10;;;;;;4995444;28;20364;-68
2023/07/04 07:25:38;;;;;;;3.97;2.08;;;33.60;42.30;;;;;;4995996;28;20491;-67
2023/07/04 07:28:04;;;;;;;2.40;1.80;;;33.50;42.70;;;;;;4998292;28;20030;-67
2023/07/04 07:30:30;;;;;;;4.13;2.25;;;33.40;43.00;;;;;;4999348;28;20085;-67
2023/07/04 07:32:56;;;;;;;3.25;2.38;;;33.20;43.20;;;;;;4999215;28;20036;-69
2023/07/04 07:35:22;;;;;;;3.30;2.10;;;33.00;43.30;;;;;;4998983;28;20046;-67
2023/07/04 07:37:48;;;;;;;2.22;1.63;;;32.90;43.50;;;;;;4999172;28;20022;-68
2023/07/04 07:40:14;;;;;;;2.88;2.20;;;32.70;43.80;;;;;;4999646;28;20030;-67
2023/07/04 07:42:40;;;;;;;2.58;1.90;;;32.60;44.20;;;;;;4999104;28;20022;-68
2023/07/04 07:45:06;;;;;;;2.47;1.80;;;32.50;44.50;;;;;;4999409;28;20359;-69
2023/07/04 07:47:32;;;;;;;3.00;2.20;;;32.50;44.90;;;;;;4999525;28;20440;-68
2023/07/04 07:49:58;;;;;;;4.15;2.20;;;32.50;44.70;;;;;;4998953;28;20121;-68
2023/07/04 07:52:25;;;;;;;3.15;1.80;;;32.30;44.50;;;;;;4999075;28;20173;-68
2023/07/04 07:54:50;;;;;;;1.80;1.70;;;32.10;44.20;;;;;;4999072;28;20032;-68
2023/07/04 07:57:16;;;;;;;2.72;1.73;;;32.00;44.50;;;;;;4998830;28;20355;-68
2023/07/04 07:59:43;;;;;;;2.50;1.70;;;31.90;44.80;;;;;;4998824;28;20030;-69
2023/07/04 08:02:15;;;;;;;3.05;2.17;;;31.90;44.70;;;;;;4998748;28;20379;-68
2023/07/04 08:04:41;;;;;;;2.13;1.50;;;31.90;43.90;;;;;;4998677;28;20022;-68
2023/07/04 08:07:08;;;;;;;1.75;1.60;;;31.70;44.20;;;;;;4998863;28;20034;-67
2023/07/04 08:09:34;;;;;;;1.95;1.60;;;31.50;44.40;;;;;;4998514;28;20448;-67
2023/07/04 08:12:00;;;;;;;1.48;1.38;;;31.30;44.90;;;;;;4997494;28;20382;-68
2023/07/04 08:14:26;;;;;;;1.80;1.70;;;31.20;45.40;;;;;;4998448;28;20022;-68
2023/07/04 08:16:53;;;;;;;2.88;1.70;;;31.20;45.10;;;;;;4999029;28;20423;-68
2023/07/04 08:19:23;;;;;;;2.60;2.05;;;31.10;44.90;;;;;;4998453;28;20473;-68
2023/07/04 08:21:49;;;;;;;2.63;1.80;;;30.90;45.00;;;;;;4998336;28;20483;-67
2023/07/04 08:24:16;;;;;;;2.40;1.67;;;30.90;45.30;;;;;;4998749;28;20068;-67
2023/07/04 08:26:44;;;;;;;1.80;1.67;;;30.80;45.80;;;;;;4998937;28;20018;-68
2023/07/04 08:29:11;;;;;;;2.67;1.80;;;30.90;45.60;;;;;;4998197;28;20126;-68
2023/07/04 08:31:37;;;;;;;2.78;1.90;;;30.90;45.40;;;;;;4998651;28;20061;-67
2023/07/04 08:34:06;;;;;;;3.03;1.90;;;30.80;45.30;;;;;;4997877;28;20047;-67
2023/07/04 08:36:33;;;;;;;3.00;1.95;;;30.70;45.40;;;;;;4996178;28;20026;-68
2023/07/04 08:38:59;;;;;;;2.50;1.80;;;30.70;45.80;;;;;;4995004;28;20157;-68
2023/07/04 08:41:36;;;;;;;4.22;1.85;;;30.70;45.80;;;;;;4996051;28;20130;-68
2023/07/04 08:44:18;;;;;;;3.92;2.05;;;30.80;45.80;;;;;;4995901;28;20562;-68
2023/07/04 08:46:49;;;;;;;6.45;2.50;;;30.80;45.30;;;;;;4996011;28;20089;-68
2023/07/04 08:49:52;;;;;;;3.88;2.28;;;30.70;45.50;;;;;;4995831;28;20026;-67
2023/07/04 08:52:44;;;;;;;2.17;1.90;;;30.70;45.80;;;;;;4995277;28;20038;-67
2023/07/04 08:55:13;;;;;;;2.90;2.00;;;30.70;46.00;;;;;;4997972;28;20088;-67
2023/07/04 08:58:00;;;;;;;1.80;1.65;;;30.80;46.20;;;;;;4997695;28;20404;-66
2023/07/04 09:00:29;;;;;;;2.13;1.70;;;30.90;46.20;;;;;;4997559;28;20018;-67
2023/07/04 09:03:17;;;;;;;3.35;2.15;;;30.90;46.20;;;;;;4998056;28;20110;-67
2023/07/04 09:05:56;;;;;;;2.20;1.80;;;31.10;46.50;;;;;;4997650;28;20034;-67
2023/07/04 09:08:54;;;;;;;3.28;1.80;;;31.20;46.40;;;;;;4992325;28;20467;-67
2023/07/04 09:11:20;;;;;;;1.95;1.63;;;31.30;46.50;;;;;;4994440;28;20042;-67
2023/07/04 09:13:53;;;;;;;3.63;2.40;;;31.40;46.20;;;;;;4997142;28;20407;-67
2023/07/04 09:16:35;;;;;;;3.35;1.88;;;31.40;45.00;;;;;;4997464;28;20069;-68
2023/07/04 09:19:05;;;;;;;2.53;2.20;;;31.20;44.80;;;;;;4997435;28;20040;-67
2023/07/04 09:21:32;;;;;;;2.67;2.00;;;31.20;45.10;;;;;;4997118;28;20026;-67
2023/07/04 09:23:59;;;;;;;2.85;2.30;;;31.20;45.40;;;;;;4997411;28;20027;-67
2023/07/04 09:26:39;;;;;;;2.08;1.85;;;31.30;45.50;;;;;;4997121;28;20345;-68
2023/07/04 09:29:06;;;;;;;2.38;2.00;;;31.30;45.50;;;;;;4997108;28;20097;-67
2023/07/04 09:31:39;;;;;;;2.83;2.10;;;31.30;45.70;;;;;;4996794;28;20030;-70
2023/07/04 09:34:12;;;;;;;2.20;2.00;;;31.30;45.60;;;;;;4996972;28;20050;-67
2023/07/04 09:36:42;;;;;;;2.90;2.30;;;31.30;45.40;;;;;;4997278;28;20073;-68
2023/07/04 09:39:09;;;;;;;3.05;2.17;;;31.30;45.40;;;;;;4996947;28;20157;-68
2023/07/04 09:41:39;;;;;;;2.75;2.40;;;31.30;45.00;;;;;;4996207;28;20344;-67
2023/07/04 09:44:16;;;;;;;2.78;2.17;;;31.20;44.40;;;;;;4996795;28;20026;-68
2023/07/04 09:46:54;;;;;;;5.20;2.80;;;31.10;44.70;;;;;;4997053;28;20057;-68
2023/07/04 09:49:26;;;;;;;3.22;1.95;;;31.10;44.50;;;;;;4996809;28;20026;-67
2023/07/04 09:52:03;;;;;;;3.22;2.20;;;31.00;44.50;;;;;;4996906;28;20022;-68
2023/07/04 09:54:31;;;;;;;3.50;2.35;;;30.90;44.50;;;;;;4996844;28;20022;-67
2023/07/04 09:57:15;;;;;;;2.95;2.20;;;30.90;44.80;;;;;;4995626;28;20325;-68
2023/07/04 09:59:42;;;;;;;4.22;2.40;;;30.80;45.10;;;;;;4996809;28;20071;-66
2023/07/04 10:02:17;;;;;;;2.97;2.25;;;30.80;45.30;;;;;;4996709;28;20085;-67
2023/07/04 10:04:50;;;;;;;3.10;2.10;;;30.70;45.70;;;;;;4996610;28;20034;-67
2023/07/04 10:07:17;;;;;;;;;;;30.60;45.70;;;;;;4997815;28;20027;-68
2023/07/04 10:09:56;;;;;;;2.72;1.90;;;30.50;46.10;;;;;;4996373;28;20273;-68
2023/07/04 10:12:24;;;;;;;2.28;1.95;;;30.60;46.20;;;;;;4996517;28;20038;-67
2023/07/04 10:14:54;;;;;;;2.58;1.77;;;30.60;46.40;;;;;;4996285;28;20026;-67
2023/07/04 10:17:22;;;;;;;2.25;1.98;;;30.70;46.40;;;;;;4996283;28;20030;-67
2023/07/04 10:19:50;;;;;;;3.05;1.92;;;30.70;46.40;;;;;;4996252;28;20397;-69
2023/07/04 10:22:29;;;;;;;2.15;1.80;;;30.80;45.90;;;;;;4995280;28;20030;-68
2023/07/04 10:24:58;;;;;;;3.13;1.77;;;30.80;45.00;;;;;;4996271;28;20030;-68
2023/07/04 10:27:34;;;;;;;2.10;1.90;;;30.70;44.40;;;;;;4995142;28;20030;-67
2023/07/04 10:30:06;;;;;;;2.25;1.90;;;30.60;44.30;;;;;;4996395;28;20030;-68
2023/07/04 10:32:54;;;;;;;2.80;2.20;;;30.50;44.40;;;;;;4995105;28;20072;-67
2023/07/04 10:35:24;;;;;;;3.90;2.08;;;30.40;44.80;;;;;;4995704;28;20050;-68
2023/07/04 10:37:55;;;;;;;3.17;2.00;;;30.40;45.00;;;;;;4996269;28;20022;-68
2023/07/04 10:40:24;;;;;;;3.20;1.95;;;30.40;44.90;;;;;;4996230;28;20368;-67
2023/07/04 10:42:58;;;;;;;1.92;1.65;;;30.40;45.20;;;;;;4995344;28;20069;-66
2023/07/04 10:45:27;;;;;;;2.67;1.90;;;30.40;45.10;;;;;;4995877;28;20502;-68
2023/07/04 10:47:57;;;;;;;2.20;1.65;;;30.40;44.30;;;;;;4996420;28;20037;-67
2023/07/04 10:50:36;;;;;;;2.08;1.60;;;30.30;43.90;;;;;;4994875;28;20514;-67
2023/07/04 10:53:02;;;;;;;3.20;1.98;;;30.30;43.70;;;;;;4995741;28;20042;-68
2023/07/04 10:55:29;;;;;;;2.03;1.70;;;30.20;43.80;;;;;;4996251;28;20037;-67
2023/07/04 10:58:22;;;;;;;2.88;1.95;;;30.20;43.80;;;;;;4996294;28;20038;-68
2023/07/04 11:00:54;;;;;;;2.88;1.75;;;30.20;44.10;;;;;;4936220;29;20039;-68
2023/07/04 11:03:23;;;;;;;1.83;1.50;;;30.20;43.60;;;;;;4939727;29;20489;-69
2023/07/04 11:05:54;;;;;;;2.28;1.55;;;30.20;43.20;;;;;;4924507;29;20046;-67
2023/07/04 11:08:23;;;;;;;1.38;1.25;;;30.20;43.20;;;;;;4940414;29;20119;-67
2023/07/04 11:11:05;;;;;;;2.40;1.80;;;30.20;43.50;;;;;;4940011;29;20091;-66
2023/07/04 11:13:32;;;;;;;3.17;1.95;;;30.20;43.30;;;;;;4940182;29;20032;-68
2023/07/04 11:16:06;;;;;;;3.45;1.90;;;30.10;43.40;;;;;;4939974;29;20099;-68
2023/07/04 11:18:40;;;;;;;1.70;1.60;;;30.10;43.40;;;;;;4940609;29;20054;-68
2023/07/04 11:21:10;;;;;;;2.65;2.00;;;30.00;43.60;;;;;;4940424;29;20094;-69
2023/07/04 11:23:51;;;;;;;1.73;1.63;;;30.00;43.60;;;;;;4939678;29;20031;-69
2023/07/04 11:26:20;;;;;;;3.60;2.15;;;29.90;44.20;;;;;;4940100;29;20083;-69
2023/07/04 11:29:07;;;;;;;3.83;1.75;;;29.90;44.20;;;;;;4940026;29;20032;-69
2023/07/04 11:31:34;;;;;;;1.90;1.67;;;30.00;44.00;;;;;;4939880;29;20414;-69
2023/07/04 11:34:04;;;;;;;1.80;1.70;;;30.00;44.00;;;;;;4939320;29;20056;-68
2023/07/04 11:36:35;;;;;;;3.20;1.80;;;30.00;44.00;;;;;;4944281;28;20060;-68
2023/07/04 11:39:21;;;;;;;1.90;1.55;;;29.90;44.50;;;;;;4999777;28;20030;-68
2023/07/04 11:41:49;;;;;;;2.80;1.60;;;29.90;44.20;;;;;;4998279;28;20036;-68
2023/07/04 11:44:22;;;;;;;1.55;1.42;;;29.90;44.60;;;;;;4999078;28;20023;-67
2023/07/04 11:47:06;;;;;;;2.15;1.95;;;30.00;42.20;;;;;;4999636;28;20080;-68
2023/07/04 11:49:34;;;;;;;2.00;1.90;;;30.10;45.50;;;;;;4999328;28;20027;-67
2023/07/04 11:52:16;;;;;;;2.30;1.60;;;30.00;43.90;;;;;;4999454;28;20026;-69
2023/07/04 11:54:44;;;;;;;3.03;1.60;;;30.00;44.50;;;;;;4998852;28;20363;-67
2023/07/04 11:57:10;;;;;;;4.00;1.52;;;30.10;44.20;;;;;;4999127;28;20037;-67
2023/07/04 11:59:39;;;;;;;1.50;1.40;;;30.20;44.10;;;;;;4998880;28;20403;-67
2023/07/04 12:02:12;;;;;;;2.05;1.85;;;30.20;43.80;;;;;;4998946;28;20036;-67
2023/07/04 12:04:38;;;;;;;2.55;1.70;;;30.20;43.70;;;;;;4998885;28;20395;-67
2023/07/04 12:07:31;;;;;;;2.28;1.48;;;30.20;43.80;;;;;;4998728;28;20022;-67
2023/07/04 12:10:00;;;;;;;1.83;1.48;;;30.30;43.30;;;;;;4998934;28;20053;-67
2023/07/04 12:12:29;;;;;;;2.47;1.88;;;30.40;43.90;;;;;;4998988;28;20026;-68
2023/07/04 12:15:09;;;;;;;4.88;1.75;;;30.40;43.90;;;;;;4999227;28;20339;-67
2023/07/04 12:17:41;;;;;;;1.67;1.30;;;30.40;42.90;;;;;;4999060;28;20025;-67
2023/07/04 12:20:11;;;;;;;2.70;1.70;;;30.40;43.40;;;;;;4998542;28;20027;-68
2023/07/04 12:22:51;;;;;;;3.67;1.30;;;30.40;43.60;;;;;;4998716;28;20030;-68
2023/07/04 12:25:35;;;;;;;2.10;1.55;;;30.40;44.00;;;;;;4997373;28;20032;-67
2023/07/04 12:28:03;;;;;;;1.95;1.33;;;30.60;43.80;;;;;;4998882;28;20105;-67
2023/07/04 12:30:33;;;;;;;2.92;1.50;;;30.70;43.80;;;;;;4998243;28;20122;-67
2023/07/04 12:32:59;;;;;;;1.65;1.23;;;30.80;43.30;;;;;;4998433;28;20044;-68
2023/07/04 12:35:31;;;;;;;1.65;1.35;;;30.80;42.20;;;;;;4997930;28;20050;-68
2023/07/04 12:37:58;;;;;;;1.92;1.42;;;30.70;41.00;;;;;;4998477;28;20142;-68
2023/07/04 12:40:28;;;;;;;2.08;1.45;;;30.60;41.50;;;;;;4998160;28;20032;-68
2023/07/04 12:42:57;;;;;;;2.00;1.40;;;30.60;42.20;;;;;;4998517;28;20069;-68
2023/07/04 12:45:25;;;;;;;2.55;1.40;;;30.70;41.60;;;;;;4997961;28;20030;-69
2023/07/04 12:47:55;;;;;;;1.70;1.60;;;30.60;43.20;;;;;;4998263;28;20034;-68
2023/07/04 12:50:22;;;;;;;1.60;1.50;;;30.50;42.20;;;;;;4998256;28;20125;-68
2023/07/04 12:52:50;;;;;;;1.63;1.52;;;30.40;42.60;;;;;;4998326;28;20454;-68
2023/07/04 12:55:23;;;;;;;1.70;1.60;;;30.40;42.90;;;;;;4997752;28;20093;-68
2023/07/04 12:57:50;;;;;;;2.42;1.58;;;30.50;42.60;;;;;;4998379;28;20109;-69